Time;durP1;ratioP1;P1;durP2;ratioP2;P2;SDS_P1;SDS_P2;PMS_P1;PMS_P2;Temp;Humidity;BMP_temperature;BMP_pressure;BME280_temperature;BME280_humidity;BME280_pressure;Samples;Min_cycle;Max_cycle;Signal;HPM_P1;HPM_P2
2023/06/08 00:02:23;;;;;;;16.48;9.00;;;13.20;99.90;;;;;;4924939;28;20040;-79
2023/06/08 00:04:53;;;;;;;14.25;7.90;;;13.20;99.90;;;;;;4908866;29;20031;-80
2023/06/08 00:07:21;;;;;;;13.23;7.80;;;13.30;99.90;;;;;;4929789;28;20045;-77
2023/06/08 00:09:47;;;;;;;13.50;7.47;;;13.20;99.90;;;;;;4914627;28;20043;-82
2023/06/08 00:12:13;;;;;;;11.48;7.05;;;13.10;99.90;;;;;;4920683;28;20028;-82
2023/06/08 00:14:39;;;;;;;11.95;8.10;;;13.20;99.90;;;;;;4902137;29;20098;-77
2023/06/08 00:17:05;;;;;;;14.75;7.97;;;13.10;99.90;;;;;;4889624;29;20542;-79
2023/06/08 00:19:33;;;;;;;15.52;7.50;;;13.10;99.90;;;;;;4910398;28;20067;-76
2023/06/08 00:22:04;;;;;;;12.23;7.90;;;13.10;99.90;;;;;;4925900;28;20040;-78
2023/06/08 00:24:31;;;;;;;12.68;6.63;;;13.10;99.90;;;;;;4911543;28;20081;-79
2023/06/08 00:26:57;;;;;;;12.68;7.65;;;13.20;99.90;;;;;;4918782;29;20051;-75
2023/06/08 00:29:23;;;;;;;17.05;8.90;;;13.10;99.90;;;;;;4912441;28;20443;-76
2023/06/08 00:31:49;;;;;;;12.63;9.00;;;13.20;99.90;;;;;;4919313;28;20088;-76
2023/06/08 00:34:16;;;;;;;12.23;7.93;;;13.10;99.90;;;;;;4904993;28;20134;-75
2023/06/08 00:36:41;;;;;;;12.50;7.63;;;13.10;99.90;;;;;;4924980;28;20127;-79
2023/06/08 00:39:07;;;;;;;11.60;7.78;;;13.20;99.90;;;;;;4906794;29;20130;-77
2023/06/08 00:41:33;;;;;;;15.45;8.77;;;13.20;99.90;;;;;;4917412;28;20044;-78
2023/06/08 00:43:59;;;;;;;14.23;9.77;;;13.20;99.90;;;;;;4911079;28;20046;-80
2023/06/08 00:46:30;;;;;;;13.93;9.68;;;13.10;99.90;;;;;;4911328;28;20043;-81
2023/06/08 00:48:57;;;;;;;15.70;9.82;;;13.20;99.90;;;;;;4924395;29;20071;-76
2023/06/08 00:51:25;;;;;;;15.05;10.00;;;13.10;99.90;;;;;;4919079;29;20044;-76
2023/06/08 00:53:51;;;;;;;21.70;11.23;;;13.10;99.90;;;;;;4917991;28;20044;-76
2023/06/08 00:56:18;;;;;;;17.30;10.68;;;13.10;99.90;;;;;;4888856;29;20090;-76
2023/06/08 00:58:49;;;;;;;17.00;10.60;;;13.10;99.90;;;;;;4891911;29;20063;-75
2023/06/08 01:01:18;;;;;;;13.43;9.80;;;13.10;99.90;;;;;;4923774;28;20089;-79
2023/06/08 01:03:47;;;;;;;13.60;9.00;;;13.10;99.90;;;;;;4923569;28;20044;-77
2023/06/08 01:06:16;;;;;;;15.02;8.43;;;13.10;99.90;;;;;;4923711;29;20094;-77
2023/06/08 01:08:42;;;;;;;19.50;10.85;;;13.20;99.90;;;;;;4919947;29;20043;-79
2023/06/08 01:11:32;;;;;;;16.98;10.05;;;13.20;99.90;;;;;;4905947;29;20058;-77
2023/06/08 01:14:24;;;;;;;17.02;9.57;;;13.10;99.90;;;;;;4924002;28;20032;-76
2023/06/08 01:16:53;;;;;;;16.38;9.73;;;13.20;99.90;;;;;;4910641;29;20074;-77
2023/06/08 01:19:56;;;;;;;17.58;9.32;;;13.00;99.90;;;;;;4898646;29;20046;-80
2023/06/08 01:22:41;;;;;;;13.15;8.50;;;13.20;99.90;;;;;;4910675;29;20044;-75
2023/06/08 01:25:08;;;;;;;;;;;13.00;99.90;;;;;;4921303;28;20047;-77
2023/06/08 01:27:36;;;;;;;17.20;10.10;;;13.10;99.90;;;;;;4921234;29;20017;-77
2023/06/08 01:30:06;;;;;;;18.55;9.25;;;13.00;99.90;;;;;;4877479;29;20036;-76
2023/06/08 01:32:33;;;;;;;15.88;9.10;;;13.00;99.90;;;;;;4918030;28;20500;-75
2023/06/08 01:34:59;;;;;;;14.85;9.02;;;13.00;99.90;;;;;;4926663;28;20071;-78
2023/06/08 01:37:43;;;;;;;14.38;9.90;;;13.00;99.90;;;;;;4909903;28;20043;-76
2023/06/08 01:40:29;;;;;;;13.77;8.50;;;13.00;99.90;;;;;;4918218;29;20384;-78
2023/06/08 01:42:55;;;;;;;14.65;9.10;;;13.10;99.90;;;;;;4911511;29;20560;-79
2023/06/08 01:45:27;;;;;;;13.15;8.90;;;13.00;99.90;;;;;;4920225;28;20138;-74
2023/06/08 01:47:58;;;;;;;14.23;8.75;;;13.00;99.90;;;;;;4924176;29;20631;-76
2023/06/08 01:50:25;;;;;;;15.55;9.60;;;13.10;99.90;;;;;;4917288;29;20040;-80
2023/06/08 01:52:51;;;;;;;20.67;10.73;;;13.00;99.90;;;;;;4920370;29;20080;-78
2023/06/08 01:55:18;;;;;;;19.27;11.45;;;13.00;99.90;;;;;;4920675;28;20136;-79
2023/06/08 01:57:44;;;;;;;19.95;11.25;;;13.10;99.90;;;;;;4904387;29;20122;-77
2023/06/08 02:00:12;;;;;;;19.55;11.32;;;13.10;99.90;;;;;;4911112;28;20047;-81
2023/06/08 02:02:38;;;;;;;18.08;10.82;;;13.10;99.90;;;;;;4927420;28;20098;-81
2023/06/08 02:05:08;;;;;;;17.80;10.38;;;13.00;99.90;;;;;;4902842;28;20043;-79
2023/06/08 02:07:35;;;;;;;19.52;10.93;;;13.10;99.90;;;;;;4925929;28;20035;-81
2023/06/08 02:10:01;;;;;;;17.65;11.05;;;13.10;99.90;;;;;;4924079;29;20040;-74
2023/06/08 02:12:27;;;;;;;14.70;10.75;;;13.10;99.90;;;;;;4909350;29;20044;-77
2023/06/08 02:14:53;;;;;;;16.70;10.95;;;13.10;99.90;;;;;;4910949;28;20046;-82
2023/06/08 02:17:26;;;;;;;15.05;9.98;;;13.20;99.90;;;;;;4927024;28;20046;-83
2023/06/08 02:19:53;;;;;;;17.55;9.95;;;13.20;99.90;;;;;;4907652;29;20106;-78
2023/06/08 02:22:19;;;;;;;16.38;9.35;;;13.20;99.90;;;;;;4884530;28;20642;-76
2023/06/08 02:24:45;;;;;;;16.30;9.40;;;13.20;99.90;;;;;;4894537;28;20075;-77
2023/06/08 02:27:11;;;;;;;13.40;8.93;;;13.20;99.90;;;;;;4907662;28;20048;-74
2023/06/08 02:29:37;;;;;;;15.35;9.77;;;13.20;99.90;;;;;;4909865;28;20134;-79
2023/06/08 02:32:03;;;;;;;17.05;9.50;;;13.30;99.90;;;;;;4922024;28;20430;-75
2023/06/08 02:34:28;;;;;;;15.15;9.02;;;13.30;99.90;;;;;;4903870;28;20071;-75
2023/06/08 02:36:54;;;;;;;18.08;9.80;;;13.20;99.90;;;;;;4906524;28;20122;-80
2023/06/08 02:39:20;;;;;;;15.20;9.35;;;13.20;99.90;;;;;;4920049;29;20047;-74
2023/06/08 02:41:45;;;;;;;13.80;8.30;;;13.20;99.90;;;;;;4909469;29;20047;-78
2023/06/08 02:44:11;;;;;;;13.52;8.60;;;13.20;99.90;;;;;;4900432;29;20050;-78
2023/06/08 02:46:37;;;;;;;15.23;8.60;;;13.20;99.90;;;;;;4906469;29;20074;-78
2023/06/08 02:49:02;;;;;;;15.35;8.05;;;13.20;99.90;;;;;;4923729;28;20079;-77
2023/06/08 02:51:28;;;;;;;17.65;9.02;;;13.20;99.90;;;;;;4925356;29;20410;-78
2023/06/08 02:53:54;;;;;;;13.05;7.90;;;13.20;99.90;;;;;;4901192;29;20055;-76
2023/06/08 02:56:21;;;;;;;14.20;7.97;;;13.30;99.90;;;;;;4887277;29;20055;-78
2023/06/08 02:58:47;;;;;;;12.23;7.25;;;13.20;99.90;;;;;;4909209;28;20074;-81
2023/06/08 03:01:15;;;;;;;12.73;7.72;;;13.40;99.90;;;;;;4925660;28;20048;-75
2023/06/08 03:03:42;;;;;;;14.45;8.27;;;13.40;99.90;;;;;;4910816;29;20071;-76
2023/06/08 03:06:09;;;;;;;17.95;8.00;;;13.40;99.90;;;;;;4921958;29;20114;-77
2023/06/08 03:08:36;;;;;;;9.82;6.72;;;13.30;99.90;;;;;;4923911;28;20142;-77
2023/06/08 03:11:02;;;;;;;13.40;7.30;;;13.40;99.90;;;;;;4913962;28;20035;-77
2023/06/08 03:13:28;;;;;;;13.32;7.13;;;13.40;99.90;;;;;;4915395;29;20439;-75
2023/06/08 03:15:55;;;;;;;13.10;6.93;;;13.40;99.90;;;;;;4904781;29;20040;-78
2023/06/08 03:18:22;;;;;;;11.77;7.03;;;13.50;99.90;;;;;;4910027;28;20052;-79
2023/06/08 03:20:51;;;;;;;18.77;7.32;;;13.50;99.90;;;;;;4904258;28;20044;-77
2023/06/08 03:23:19;;;;;;;11.30;7.03;;;13.40;99.90;;;;;;4925973;29;20097;-76
2023/06/08 03:25:48;;;;;;;11.15;6.60;;;13.50;99.90;;;;;;4898631;29;20041;-79
2023/06/08 03:28:18;;;;;;;14.25;6.85;;;13.40;99.90;;;;;;4921955;28;20043;-75
2023/06/08 03:30:44;;;;;;;11.35;6.22;;;13.40;99.90;;;;;;4897821;29;20040;-79
2023/06/08 03:33:11;;;;;;;13.27;6.30;;;13.50;99.90;;;;;;4910091;28;20495;-76
2023/06/08 03:35:38;;;;;;;11.68;6.53;;;13.50;99.90;;;;;;4929779;29;20086;-74
2023/06/08 03:38:03;;;;;;;15.60;7.15;;;13.40;99.90;;;;;;4928642;28;20543;-78
2023/06/08 03:40:29;;;;;;;15.27;6.88;;;13.40;99.90;;;;;;4910710;28;20066;-77
2023/06/08 03:42:55;;;;;;;12.77;7.07;;;13.40;99.90;;;;;;4909988;29;20054;-75
2023/06/08 03:45:21;;;;;;;13.15;6.63;;;13.40;99.90;;;;;;4921266;29;20090;-80
2023/06/08 03:47:46;;;;;;;17.67;6.75;;;13.50;99.90;;;;;;4885652;29;20043;-79
2023/06/08 03:50:12;;;;;;;12.38;6.22;;;13.40;99.90;;;;;;4907549;28;20040;-75
2023/06/08 03:52:38;;;;;;;15.57;6.85;;;13.50;99.90;;;;;;4928422;28;20062;-76
2023/06/08 03:55:13;;;;;;;10.20;5.90;;;13.30;99.90;;;;;;4886359;29;20762;-79
2023/06/08 03:57:39;;;;;;;;;;;13.30;99.90;;;;;;4927758;29;20055;-77
2023/06/08 04:00:13;;;;;;;14.55;6.72;;;13.50;99.90;;;;;;4904971;28;19969;-77
2023/06/08 04:02:39;;;;;;;10.00;5.63;;;13.50;99.90;;;;;;4938948;28;20581;-79
2023/06/08 04:05:06;;;;;;;14.13;6.35;;;13.50;99.90;;;;;;4908377;29;20052;-79
2023/06/08 04:07:34;;;;;;;11.95;6.65;;;13.40;99.90;;;;;;4918456;29;20045;-77
2023/06/08 04:10:01;;;;;;;14.05;6.35;;;13.50;99.90;;;;;;4890078;29;20102;-79
2023/06/08 04:12:27;;;;;;;16.63;6.82;;;13.40;99.90;;;;;;4922468;29;20051;-79
2023/06/08 04:14:53;;;;;;;13.93;6.45;;;13.40;99.90;;;;;;4912156;28;20041;-76
2023/06/08 04:17:18;;;;;;;11.00;6.45;;;13.40;99.90;;;;;;4894739;28;20078;-78
2023/06/08 04:19:44;;;;;;;12.63;6.50;;;13.50;99.90;;;;;;4896291;28;20044;-78
2023/06/08 04:22:10;;;;;;;17.27;6.70;;;13.40;99.90;;;;;;4904147;28;20044;-78
2023/06/08 04:24:38;;;;;;;14.95;7.20;;;13.50;99.90;;;;;;4906480;29;20055;-77
2023/06/08 04:27:05;;;;;;;12.95;6.78;;;13.50;99.90;;;;;;4914099;29;20039;-79
2023/06/08 04:29:31;;;;;;;13.05;6.70;;;13.60;99.90;;;;;;4912165;29;20090;-77
2023/06/08 04:31:57;;;;;;;15.13;6.30;;;13.50;99.90;;;;;;4889595;28;20677;-79
2023/06/08 04:34:23;;;;;;;12.57;6.70;;;13.60;99.90;;;;;;4904945;29;20032;-77
2023/06/08 04:36:49;;;;;;;13.60;6.60;;;13.60;99.90;;;;;;4913168;29;20434;-79
2023/06/08 04:39:15;;;;;;;12.68;6.53;;;13.70;99.90;;;;;;4898566;29;20085;-78
2023/06/08 04:41:41;;;;;;;15.32;6.90;;;13.60;99.90;;;;;;4929878;29;20492;-77
2023/06/08 04:44:08;;;;;;;13.40;6.47;;;13.60;99.90;;;;;;4905874;29;20044;-76
2023/06/08 04:46:37;;;;;;;14.52;6.50;;;13.60;99.90;;;;;;4888885;29;20097;-75
2023/06/08 04:49:03;;;;;;;14.05;6.82;;;13.60;99.90;;;;;;4906607;29;20048;-77
2023/06/08 04:51:30;;;;;;;14.18;6.75;;;13.70;99.90;;;;;;4913000;28;20040;-78
2023/06/08 04:54:05;;;;;;;13.73;6.68;;;13.70;99.90;;;;;;4906476;28;20039;-76
2023/06/08 04:56:33;;;;;;;10.40;7.20;;;13.70;99.90;;;;;;4928258;29;20397;-79
2023/06/08 04:58:59;;;;;;;9.82;6.03;;;13.80;99.90;;;;;;4895649;29;20174;-76
2023/06/08 05:01:26;;;;;;;11.10;5.35;;;13.90;99.90;;;;;;4915732;29;20044;-78
2023/06/08 05:03:51;;;;;;;10.95;6.65;;;13.70;99.90;;;;;;4925318;28;20047;-77
2023/06/08 05:06:17;;;;;;;13.00;5.63;;;13.80;99.90;;;;;;4906586;29;20435;-78
2023/06/08 05:08:43;;;;;;;12.38;6.05;;;13.80;99.90;;;;;;4908559;29;20365;-78
2023/06/08 05:11:09;;;;;;;11.65;5.10;;;13.80;99.90;;;;;;4875856;29;20094;-78
2023/06/08 05:13:35;;;;;;;10.93;5.78;;;13.80;99.90;;;;;;4908669;28;20039;-82
2023/06/08 05:16:01;;;;;;;16.20;5.78;;;13.80;99.90;;;;;;4882926;28;20419;-81
2023/06/08 05:18:28;;;;;;;12.60;5.10;;;13.80;99.90;;;;;;4913275;29;20153;-81
2023/06/08 05:20:53;;;;;;;12.30;6.03;;;13.80;99.90;;;;;;4908799;29;20044;-79
2023/06/08 05:23:19;;;;;;;8.57;5.75;;;13.90;99.90;;;;;;4919678;28;20047;-78
2023/06/08 05:25:45;;;;;;;13.35;5.68;;;13.90;99.90;;;;;;4905298;29;20039;-76
2023/06/08 05:28:11;;;;;;;13.18;5.90;;;14.00;99.90;;;;;;4919351;29;20388;-77
2023/06/08 05:30:37;;;;;;;14.63;5.93;;;14.20;99.90;;;;;;4900347;29;20050;-77
2023/06/08 05:33:02;;;;;;;8.30;4.90;;;14.10;99.90;;;;;;4873657;28;20127;-76
2023/06/08 05:35:29;;;;;;;14.10;5.45;;;14.10;99.90;;;;;;4922165;28;20743;-80
2023/06/08 05:37:55;;;;;;;14.52;5.93;;;14.10;99.90;;;;;;4910481;29;20044;-76
2023/06/08 05:40:24;;;;;;;11.15;5.78;;;14.30;99.90;;;;;;4918789;28;20464;-76
2023/06/08 05:42:50;;;;;;;9.00;5.60;;;14.10;99.90;;;;;;4918098;28;20141;-80
2023/06/08 05:45:16;;;;;;;13.65;5.30;;;14.20;99.90;;;;;;4905145;28;20040;-76
2023/06/08 05:47:42;;;;;;;11.63;6.50;;;14.40;99.90;;;;;;4877359;29;20075;-79
2023/06/08 05:50:08;;;;;;;12.27;6.00;;;14.10;99.90;;;;;;4898469;28;20783;-79
2023/06/08 05:52:34;;;;;;;12.25;5.47;;;14.30;99.90;;;;;;4894342;28;20082;-80
2023/06/08 05:55:00;;;;;;;11.40;6.18;;;14.50;99.90;;;;;;4916635;28;20052;-79
2023/06/08 05:57:26;;;;;;;11.93;5.50;;;14.40;99.90;;;;;;4888392;29;20074;-76
2023/06/08 05:59:52;;;;;;;9.98;5.55;;;14.50;99.90;;;;;;4893170;29;20131;-73
2023/06/08 06:02:18;;;;;;;10.23;5.90;;;14.50;99.90;;;;;;4924605;29;20127;-75
2023/06/08 06:04:44;;;;;;;13.38;6.45;;;14.60;99.90;;;;;;4917318;28;20058;-76
2023/06/08 06:07:10;;;;;;;10.20;5.97;;;14.50;99.90;;;;;;4896034;29;20480;-74
2023/06/08 06:09:35;;;;;;;13.45;6.20;;;14.50;99.90;;;;;;4893493;29;20056;-74
2023/06/08 06:12:02;;;;;;;10.75;5.60;;;14.50;99.90;;;;;;4905549;28;20074;-76
2023/06/08 06:14:36;;;;;;;13.80;5.85;;;14.80;99.90;;;;;;4908458;28;20479;-79
2023/06/08 06:17:02;;;;;;;11.63;5.97;;;14.80;99.90;;;;;;4889423;28;20044;-73
2023/06/08 06:19:33;;;;;;;9.75;5.60;;;15.00;99.90;;;;;;4901220;29;20050;-78
2023/06/08 06:21:58;;;;;;;11.77;5.45;;;14.80;99.90;;;;;;4923000;29;20048;-74
2023/06/08 06:24:24;;;;;;;12.05;4.95;;;14.60;99.90;;;;;;4909636;28;20098;-77
2023/06/08 06:26:49;;;;;;;15.10;5.78;;;14.90;99.90;;;;;;4927035;29;20047;-75
2023/06/08 06:29:15;;;;;;;14.90;5.47;;;15.20;99.90;;;;;;4902576;29;20047;-75
2023/06/08 06:31:41;;;;;;;14.05;5.47;;;15.40;99.90;;;;;;4902420;29;20083;-74
2023/06/08 06:34:06;;;;;;;9.07;4.80;;;15.60;99.90;;;;;;4916508;29;20061;-77
2023/06/08 06:36:32;;;;;;;11.15;5.05;;;15.20;99.90;;;;;;4916012;28;20044;-76
2023/06/08 06:38:58;;;;;;;13.75;5.50;;;15.30;99.90;;;;;;4885224;29;20051;-76
2023/06/08 06:41:25;;;;;;;13.00;4.28;;;15.50;99.90;;;;;;4907618;29;20043;-78
2023/06/08 06:43:51;;;;;;;15.07;4.80;;;15.80;99.90;;;;;;4904385;28;20044;-74
2023/06/08 06:46:19;;;;;;;11.65;5.20;;;15.60;99.90;;;;;;4885736;29;20440;-79
2023/06/08 06:48:45;;;;;;;12.38;4.53;;;16.00;99.90;;;;;;4898935;29;20040;-77
2023/06/08 06:51:11;;;;;;;12.88;4.70;;;16.10;99.90;;;;;;4963221;28;20408;-73
2023/06/08 06:53:37;;;;;;;8.27;4.63;;;16.50;99.90;;;;;;4930198;28;20602;-73
2023/06/08 06:56:03;;;;;;;6.93;4.00;;;16.60;99.90;;;;;;4911645;29;20181;-74
2023/06/08 06:58:29;;;;;;;10.02;4.85;;;16.60;99.90;;;;;;4907867;29;20052;-77
2023/06/08 07:00:55;;;;;;;13.65;4.78;;;16.90;99.90;;;;;;4905128;29;20044;-75
2023/06/08 07:03:21;;;;;;;10.27;4.72;;;16.70;99.90;;;;;;4914881;29;20047;-77
2023/06/08 07:05:49;;;;;;;9.23;4.20;;;16.60;99.90;;;;;;4925695;28;20129;-74
2023/06/08 07:08:15;;;;;;;13.88;4.70;;;17.00;99.90;;;;;;4914038;28;20705;-74
2023/06/08 07:10:41;;;;;;;10.73;4.93;;;17.30;99.90;;;;;;4912051;29;20074;-79
2023/06/08 07:13:06;;;;;;;11.63;4.82;;;17.40;99.90;;;;;;4889859;29;20374;-78
2023/06/08 07:15:32;;;;;;;11.07;4.57;;;17.60;99.90;;;;;;4926928;29;20039;-78
2023/06/08 07:17:58;;;;;;;9.10;4.35;;;17.70;99.90;;;;;;4903185;29;20043;-76
2023/06/08 07:20:23;;;;;;;14.90;5.82;;;17.90;99.90;;;;;;4881804;29;20080;-77
2023/06/08 07:22:49;;;;;;;15.93;5.15;;;17.90;99.90;;;;;;4902391;29;20040;-73
2023/06/08 07:25:15;;;;;;;9.45;4.72;;;18.00;99.90;;;;;;4894195;28;20581;-78
2023/06/08 07:27:41;;;;;;;11.93;4.30;;;18.10;99.90;;;;;;4913421;29;20051;-75
2023/06/08 07:30:07;;;;;;;8.75;4.32;;;18.10;99.90;;;;;;4925919;29;20043;-76
2023/06/08 07:32:33;;;;;;;11.07;4.45;;;18.20;99.90;;;;;;4905464;28;20106;-75
2023/06/08 07:34:59;;;;;;;13.35;4.65;;;18.30;99.90;;;;;;4890404;28;20047;-77
2023/06/08 07:37:25;;;;;;;15.20;4.47;;;18.40;99.90;;;;;;4954754;28;20032;-80
2023/06/08 07:39:51;;;;;;;14.20;4.88;;;18.40;99.90;;;;;;4908162;29;20135;-75
2023/06/08 07:42:16;;;;;;;10.30;4.15;;;18.40;99.90;;;;;;4920216;29;20051;-77
2023/06/08 07:44:42;;;;;;;15.80;5.03;;;18.50;99.90;;;;;;4903812;28;20040;-73
2023/06/08 07:47:08;;;;;;;12.27;4.50;;;18.00;99.90;;;;;;4922259;29;20046;-73
2023/06/08 07:49:33;;;;;;;14.48;5.90;;;17.80;99.90;;;;;;4909435;29;20124;-79
2023/06/08 07:51:59;;;;;;;10.10;4.40;;;18.20;99.90;;;;;;4904327;29;20130;-74
2023/06/08 07:54:25;;;;;;;10.88;4.75;;;18.40;99.90;;;;;;4901366;29;20062;-77
2023/06/08 07:56:51;;;;;;;7.15;4.05;;;18.20;99.90;;;;;;4923552;28;20060;-75
2023/06/08 07:59:16;;;;;;;9.23;5.15;;;18.50;99.90;;;;;;4909373;29;20044;-77
2023/06/08 08:01:42;;;;;;;10.35;4.63;;;18.50;99.90;;;;;;4908726;28;20048;-74
2023/06/08 08:04:09;;;;;;;10.35;4.35;;;17.80;99.90;;;;;;4938526;28;20074;-75
2023/06/08 08:06:34;;;;;;;11.32;5.10;;;18.00;99.90;;;;;;4916097;28;20035;-75
2023/06/08 08:09:00;;;;;;;10.48;4.60;;;18.20;99.90;;;;;;4920728;29;20044;-74
2023/06/08 08:11:27;;;;;;;8.15;4.22;;;18.40;99.90;;;;;;4912455;28;20087;-79
2023/06/08 08:13:54;;;;;;;9.70;5.00;;;18.20;99.90;;;;;;4923782;29;20039;-74
2023/06/08 08:16:20;;;;;;;9.15;5.40;;;18.20;99.90;;;;;;4898283;28;20055;-76
2023/06/08 08:18:46;;;;;;;14.10;4.78;;;18.00;99.90;;;;;;4907350;29;20043;-74
2023/06/08 08:21:12;;;;;;;9.15;4.70;;;18.20;99.90;;;;;;4898508;28;20044;-76
2023/06/08 08:23:38;;;;;;;11.77;5.07;;;18.70;99.90;;;;;;4908479;28;20425;-75
2023/06/08 08:26:04;;;;;;;8.40;4.68;;;18.90;99.90;;;;;;4909948;29;20047;-78
2023/06/08 08:28:29;;;;;;;9.55;4.60;;;18.80;99.90;;;;;;4925460;28;20090;-74
2023/06/08 08:30:56;;;;;;;12.48;5.20;;;18.90;99.90;;;;;;4909693;28;20067;-77
2023/06/08 08:33:22;;;;;;;13.40;4.90;;;19.00;99.90;;;;;;4901855;29;20151;-78
2023/06/08 08:35:47;;;;;;;8.48;5.03;;;18.90;99.90;;;;;;4919102;29;20469;-76
2023/06/08 08:38:13;;;;;;;8.57;4.22;;;19.20;99.90;;;;;;4896425;29;20118;-76
2023/06/08 08:40:41;;;;;;;10.18;4.72;;;18.80;99.90;;;;;;4895448;29;20139;-77
2023/06/08 08:43:22;;;;;;;9.63;4.97;;;19.30;99.90;;;;;;4906358;28;20051;-75
2023/06/08 08:45:50;;;;;;;9.55;4.65;;;18.80;99.90;;;;;;4918564;29;20083;-77
2023/06/08 08:48:19;;;;;;;9.93;5.28;;;18.80;99.90;;;;;;4924808;29;20044;-77
2023/06/08 08:50:51;;;;;;;9.80;5.10;;;18.90;99.90;;;;;;4929550;29;20481;-76
2023/06/08 08:53:17;;;;;;;14.88;5.07;;;19.50;99.90;;;;;;4923031;28;20091;-76
2023/06/08 08:55:48;;;;;;;10.30;4.70;;;19.80;99.90;;;;;;4913833;29;20572;-76
2023/06/08 08:58:18;;;;;;;9.23;4.82;;;19.20;99.90;;;;;;4889019;29;20066;-76
2023/06/08 09:00:48;;;;;;;7.80;5.22;;;18.80;99.90;;;;;;4919029;29;20039;-75
2023/06/08 09:03:17;;;;;;;12.48;4.90;;;19.10;99.90;;;;;;4927127;28;20048;-76
2023/06/08 09:05:45;;;;;;;8.25;4.43;;;18.90;99.90;;;;;;4910221;29;20044;-77
2023/06/08 09:08:11;;;;;;;7.57;4.10;;;19.00;99.90;;;;;;4911902;29;20465;-75
2023/06/08 09:10:38;;;;;;;12.73;5.20;;;19.20;99.90;;;;;;4923137;29;20040;-74
2023/06/08 09:13:03;;;;;;;10.18;4.75;;;19.40;99.90;;;;;;4896665;28;20044;-72
2023/06/08 09:15:36;;;;;;;6.30;4.22;;;19.30;99.90;;;;;;4907136;28;20044;-73
2023/06/08 09:18:15;;;;;;;13.38;4.75;;;19.20;99.90;;;;;;4913243;29;20570;-73
2023/06/08 09:20:41;;;;;;;9.23;4.30;;;20.00;99.90;;;;;;4893251;29;20039;-72
2023/06/08 09:23:24;;;;;;;6.93;3.78;;;20.60;99.90;;;;;;4917956;29;20038;-73
2023/06/08 09:25:51;;;;;;;9.77;4.82;;;21.20;99.90;;;;;;4919521;28;20076;-76
2023/06/08 09:28:28;;;;;;;13.05;3.72;;;20.20;99.90;;;;;;4927524;29;20052;-76
2023/06/08 09:31:00;;;;;;;10.10;4.00;;;20.50;99.90;;;;;;4899509;29;20665;-75
2023/06/08 09:33:32;;;;;;;6.65;4.15;;;21.00;99.90;;;;;;4909943;29;20056;-72
2023/06/08 09:35:58;;;;;;;8.18;4.10;;;20.10;99.90;;;;;;4904842;28;20074;-72
2023/06/08 09:38:28;;;;;;;10.95;4.20;;;20.70;99.90;;;;;;4918367;28;20052;-73
2023/06/08 09:41:17;;;;;;;7.97;4.00;;;20.20;99.90;;;;;;4907562;29;20093;-75
2023/06/08 09:43:47;;;;;;;7.25;3.50;;;21.00;99.90;;;;;;4918094;29;20447;-75
2023/06/08 09:46:31;;;;;;;8.32;3.53;;;21.40;99.90;;;;;;4919263;28;20468;-65
2023/06/08 09:48:57;;;;;;;8.53;3.67;;;21.20;99.90;;;;;;4923333;28;20044;-75
2023/06/08 09:51:23;;;;;;;5.85;3.58;;;21.60;99.90;;;;;;4927150;28;20286;-76
2023/06/08 09:53:57;;;;;;;7.57;3.92;;;21.00;99.90;;;;;;4910466;29;20078;-73
2023/06/08 09:56:25;;;;;;;;;;;20.90;99.90;;;;;;4923915;28;20410;-74
2023/06/08 09:58:56;;;;;;;8.45;3.50;;;21.00;99.90;;;;;;4917638;29;20430;-76
2023/06/08 10:01:38;;;;;;;6.78;3.50;;;21.70;99.90;;;;;;4900957;29;20048;-73
2023/06/08 10:04:21;;;;;;;7.22;4.03;;;21.30;99.90;;;;;;4923727;29;20046;-78
2023/06/08 10:06:51;;;;;;;6.40;3.50;;;21.90;99.90;;;;;;4902216;29;20051;-74
2023/06/08 10:09:21;;;;;;;6.18;3.38;;;21.70;99.90;;;;;;4939771;28;20126;-75
2023/06/08 10:11:48;;;;;;;8.73;3.50;;;21.50;99.90;;;;;;4909433;28;20047;-73
2023/06/08 10:14:16;;;;;;;7.68;3.80;;;21.40;99.90;;;;;;4924262;28;20042;-74
2023/06/08 10:16:42;;;;;;;7.95;3.72;;;21.40;99.90;;;;;;4914477;29;20044;-79
2023/06/08 10:19:10;;;;;;;7.20;3.75;;;21.20;99.90;;;;;;4907910;29;20036;-77
2023/06/08 10:21:36;;;;;;;7.72;3.42;;;21.00;99.90;;;;;;4908761;29;20086;-74
2023/06/08 10:24:03;;;;;;;7.85;3.55;;;21.30;99.90;;;;;;4930224;29;20553;-78
2023/06/08 10:26:29;;;;;;;6.38;3.80;;;21.00;99.90;;;;;;4932083;28;20051;-78
2023/06/08 10:29:08;;;;;;;9.18;3.85;;;21.40;99.90;;;;;;4989262;28;20048;-78
2023/06/08 10:31:37;;;;;;;10.50;3.92;;;21.80;99.90;;;;;;4930322;29;20047;-78
2023/06/08 10:34:13;;;;;;;7.22;4.13;;;22.00;99.90;;;;;;4929891;29;20063;-74
2023/06/08 10:36:41;;;;;;;6.38;3.83;;;21.10;99.90;;;;;;4902729;29;20105;-73
2023/06/08 10:39:10;;;;;;;6.32;3.30;;;21.60;99.90;;;;;;4938155;28;20431;-73
2023/06/08 10:41:42;;;;;;;9.50;3.72;;;21.50;99.90;;;;;;4903451;29;20036;-72
2023/06/08 10:44:31;;;;;;;5.68;3.15;;;21.50;99.90;;;;;;4935225;28;20040;-72
2023/06/08 10:47:12;;;;;;;6.70;3.40;;;21.80;99.90;;;;;;4905741;29;20043;-75
2023/06/08 10:49:39;;;;;;;5.45;3.38;;;22.80;99.90;;;;;;4953906;28;20042;-70
2023/06/08 10:52:09;;;;;;;9.20;4.25;;;22.10;99.90;;;;;;4901559;28;20035;-73
2023/06/08 10:54:57;;;;;;;6.20;3.67;;;21.40;99.90;;;;;;4932813;28;20051;-73
2023/06/08 10:57:45;;;;;;;5.30;3.05;;;22.30;99.90;;;;;;4936649;29;20416;-74
2023/06/08 11:00:30;;;;;;;8.80;3.90;;;22.70;98.80;;;;;;4932078;28;20044;-74
2023/06/08 11:03:04;;;;;;;9.02;3.97;;;22.20;92.50;;;;;;4919470;29;20051;-75
2023/06/08 11:05:32;;;;;;;5.07;3.28;;;22.90;84.00;;;;;;4936282;29;20050;-74
2023/06/08 11:08:00;;;;;;;6.70;3.47;;;22.20;56.50;;;;;;4921035;29;20135;-73
2023/06/08 11:10:26;;;;;;;6.65;3.80;;;22.10;61.00;;;;;;4934832;29;20046;-74
2023/06/08 11:12:53;;;;;;;8.32;3.80;;;22.20;25.30;;;;;;4928158;28;20122;-71
2023/06/08 11:15:19;;;;;;;9.57;3.60;;;22.90;82.40;;;;;;4931225;28;20211;-76
2023/06/08 11:17:55;;;;;;;7.03;3.88;;;21.70;30.50;;;;;;4935123;28;20047;-72
2023/06/08 11:20:27;;;;;;;7.00;3.70;;;21.80;72.60;;;;;;4921833;29;20039;-75
2023/06/08 11:22:53;;;;;;;12.32;3.53;;;22.70;87.60;;;;;;4898773;29;20050;-73
2023/06/08 11:25:20;;;;;;;5.93;3.08;;;22.80;1.00;;;;;;4906768;28;20181;-72
2023/06/08 11:27:46;;;;;;;5.55;3.42;;;22.90;1.90;;;;;;4902539;29;20044;-74
2023/06/08 11:30:27;;;;;;;6.85;3.45;;;22.50;21.10;;;;;;4931395;28;20043;-71
2023/06/08 11:32:54;;;;;;;6.20;3.65;;;21.80;1.00;;;;;;4930275;29;20115;-70
2023/06/08 11:35:23;;;;;;;7.15;3.53;;;21.80;5.70;;;;;;4932818;29;20135;-71
2023/06/08 11:37:59;;;;;;;7.15;3.70;;;22.00;1.00;;;;;;4911356;29;20102;-70
2023/06/08 11:40:26;;;;;;;5.10;3.70;;;22.60;1.00;;;;;;4934240;29;20044;-70
2023/06/08 11:42:52;;;;;;;5.63;3.55;;;22.10;1.00;;;;;;4932126;29;20048;-71
2023/06/08 11:45:18;;;;;;;6.90;3.80;;;23.10;1.00;;;;;;4917651;28;20090;-71
2023/06/08 11:47:45;;;;;;;6.38;3.60;;;22.70;1.00;;;;;;4939756;29;20060;-73
2023/06/08 11:50:14;;;;;;;5.97;3.40;;;22.50;1.00;;;;;;4937894;29;20043;-74
2023/06/08 11:52:42;;;;;;;5.80;3.55;;;22.30;99.90;;;;;;4916434;29;20487;-71
2023/06/08 11:55:13;;;;;;;6.35;3.35;;;22.30;11.70;;;;;;4917109;29;20131;-72
2023/06/08 11:57:59;;;;;;;7.28;3.80;;;22.30;1.30;;;;;;4907078;29;20106;-75
2023/06/08 12:00:31;;;;;;;6.72;3.25;;;22.20;1.00;;;;;;4921523;29;20051;-75
2023/06/08 12:02:58;;;;;;;5.93;3.25;;;22.00;99.90;;;;;;4910776;29;20047;-73
2023/06/08 12:05:30;;;;;;;5.60;3.10;;;22.90;99.90;;;;;;4924690;29;20040;-77
2023/06/08 12:08:01;;;;;;;6.25;3.15;;;22.00;45.70;;;;;;4929542;29;20047;-77
2023/06/08 12:10:38;;;;;;;6.10;3.28;;;22.70;99.90;;;;;;4926731;29;20047;-75
2023/06/08 12:13:22;;;;;;;8.25;3.70;;;21.80;99.90;;;;;;4920128;29;20147;-78
2023/06/08 12:15:50;;;;;;;7.70;3.50;;;22.10;99.90;;;;;;4924621;29;20508;-77
2023/06/08 12:18:17;;;;;;;9.60;3.92;;;22.20;1.00;;;;;;4897400;29;20044;-76
2023/06/08 12:20:45;;;;;;;8.60;3.50;;;22.70;13.90;;;;;;4902546;29;20063;-74
2023/06/08 12:23:12;;;;;;;7.15;3.90;;;21.90;99.90;;;;;;4920485;29;20036;-77
2023/06/08 12:25:40;;;;;;;7.18;3.30;;;22.60;99.90;;;;;;4911282;29;20036;-75
2023/06/08 12:28:15;;;;;;;6.60;3.55;;;22.50;99.90;;;;;;4906618;29;20132;-78
2023/06/08 12:30:41;;;;;;;8.55;3.70;;;22.50;99.90;;;;;;4922601;28;20040;-78
2023/06/08 12:33:06;;;;;;;6.68;3.35;;;22.30;99.90;;;;;;4909834;29;20043;-73
2023/06/08 12:35:32;;;;;;;6.72;3.75;;;22.50;99.90;;;;;;4897357;29;20424;-77
2023/06/08 12:37:58;;;;;;;6.43;3.42;;;22.90;99.90;;;;;;4911842;29;20432;-78
2023/06/08 12:40:23;;;;;;;6.10;3.40;;;22.90;99.90;;;;;;4910846;29;20044;-77
2023/06/08 12:42:49;;;;;;;9.85;3.70;;;23.00;99.90;;;;;;4895912;29;20514;-78
2023/06/08 12:45:19;;;;;;;6.68;3.35;;;22.60;99.90;;;;;;4914682;28;20032;-73
2023/06/08 12:47:45;;;;;;;6.82;2.80;;;23.40;96.80;;;;;;4911811;29;20542;-78